Time;durP1;ratioP1;P1;durP2;ratioP2;P2;SDS_P1;SDS_P2;PMS_P1;PMS_P2;Temp;Humidity;BMP_temperature;BMP_pressure;BME280_temperature;BME280_humidity;BME280_pressure;Samples;Min_cycle;Max_cycle;Signal;HPM_P1;HPM_P2
2023/06/17 00:01:22;;;;;;;15.73;9.20;;;;;;;;;;5092479;28;20028;-35
2023/06/17 00:03:47;;;;;;;14.85;9.52;;;;;;;;;;5085906;28;20027;-35
2023/06/17 00:06:13;;;;;;;15.67;11.00;;;;;;;;;;5090739;28;20397;-33
2023/06/17 00:08:38;;;;;;;16.02;10.25;;;;;;;;;;5088542;28;20282;-34
2023/06/17 00:11:03;;;;;;;18.10;10.00;;;;;;;;;;5087408;28;20062;-33
2023/06/17 00:13:29;;;;;;;17.85;11.07;;;;;;;;;;5090991;28;20499;-34
2023/06/17 00:15:56;;;;;;;18.70;10.68;;;;;;;;;;5095175;28;20016;-34
2023/06/17 00:18:24;;;;;;;17.98;11.80;;;;;;;;;;5092923;28;20036;-31
2023/06/17 00:20:53;;;;;;;20.08;12.13;;;;;;;;;;5086016;28;20032;-31
2023/06/17 00:23:21;;;;;;;18.20;11.70;;;;;;;;;;5092146;28;20764;-33
2023/06/17 00:25:47;;;;;;;21.13;12.15;;;;;;;;;;5090918;28;20031;-36
2023/06/17 00:28:13;;;;;;;19.25;11.65;;;;;;;;;;5092260;28;20417;-33
2023/06/17 00:30:38;;;;;;;21.83;12.30;;;;;;;;;;5098860;28;20491;-32
2023/06/17 00:33:04;;;;;;;16.92;11.63;;;;;;;;;;5089048;28;20406;-34
2023/06/17 00:35:29;;;;;;;17.60;13.02;;;;;;;;;;5095323;28;20020;-32
2023/06/17 00:37:54;;;;;;;18.60;12.85;;;;;;;;;;5094656;28;20020;-32
2023/06/17 00:40:20;;;;;;;24.25;12.45;;;;;;;;;;5090654;28;20046;-33
2023/06/17 00:42:45;;;;;;;18.55;12.32;;;;;;;;;;5095791;28;20094;-33
2023/06/17 00:45:10;;;;;;;17.10;12.32;;;;;;;;;;5090616;28;20020;-35
2023/06/17 00:47:36;;;;;;;19.80;13.33;;;;;;;;;;5097575;28;20054;-34
2023/06/17 00:50:02;;;;;;;15.68;12.00;;;;;;;;;;5093401;28;20725;-31
2023/06/17 00:52:28;;;;;;;22.67;13.35;;;;;;;;;;5097593;28;20016;-33
2023/06/17 00:54:53;;;;;;;19.17;12.60;;;;;;;;;;5096176;28;20077;-31
2023/06/17 00:57:19;;;;;;;18.63;11.55;;;;;;;;;;5096496;28;20020;-37
2023/06/17 00:59:44;;;;;;;19.23;12.40;;;;;;;;;;5095771;28;20761;-33
2023/06/17 01:02:11;;;;;;;18.55;12.30;;;;;;;;;;5090315;28;20035;-34
2023/06/17 01:04:43;;;;;;;18.45;12.18;;;;;;;;;;5092442;28;20462;-36
2023/06/17 01:07:16;;;;;;;17.67;11.25;;;;;;;;;;5097158;28;20042;-32
2023/06/17 01:09:50;;;;;;;17.30;11.93;;;;;;;;;;5093633;28;20028;-34
2023/06/17 01:12:15;;;;;;;21.40;12.70;;;;;;;;;;5098051;28;20032;-33
2023/06/17 01:14:42;;;;;;;17.98;12.48;;;;;;;;;;5097789;28;20035;-34
2023/06/17 01:17:10;;;;;;;18.92;12.63;;;;;;;;;;5094549;28;20038;-34
2023/06/17 01:19:35;;;;;;;19.13;12.98;;;;;;;;;;5098727;28;20145;-34
2023/06/17 01:22:01;;;;;;;17.88;12.50;;;;;;;;;;5094599;28;20465;-33
2023/06/17 01:24:29;;;;;;;19.77;12.80;;;;;;;;;;5090005;28;20044;-32
2023/06/17 01:26:57;;;;;;;20.77;12.98;;;;;;;;;;5091741;28;20039;-34
2023/06/17 01:29:23;;;;;;;19.40;13.85;;;;;;;;;;5089367;28;20407;-33
2023/06/17 01:32:01;;;;;;;25.42;13.75;;;;;;;;;;5088008;28;20761;-34
2023/06/17 01:34:45;;;;;;;23.77;12.93;;;;;;;;;;5089253;28;20034;-33
2023/06/17 01:37:13;;;;;;;19.27;13.38;;;;;;;;;;5085839;28;20020;-33
2023/06/17 01:39:43;;;;;;;20.27;12.75;;;;;;;;;;5091997;28;20043;-33
2023/06/17 01:42:11;;;;;;;23.33;13.18;;;;;;;;;;5088329;28;20027;-33
2023/06/17 01:44:38;;;;;;;20.83;13.05;;;;;;;;;;5089476;28;20032;-32
2023/06/17 01:47:04;;;;;;;20.05;13.25;;;;;;;;;;5092444;28;20873;-35
2023/06/17 01:49:29;;;;;;;22.27;14.85;;;;;;;;;;5089790;28;20020;-32
2023/06/17 01:51:55;;;;;;;21.77;14.27;;;;;;;;;;5091759;28;20390;-32
2023/06/17 01:54:20;;;;;;;19.95;13.68;;;;;;;;;;5099214;28;20024;-34
2023/06/17 01:56:46;;;;;;;18.47;12.30;;;;;;;;;;5094475;28;20020;-32
2023/06/17 01:59:11;;;;;;;24.58;12.95;;;;;;;;;;5091026;28;20624;-34
2023/06/17 02:01:36;;;;;;;21.52;13.23;;;;;;;;;;5091050;28;20024;-33
2023/06/17 02:04:02;;;;;;;19.23;11.87;;;;;;;;;;5096429;28;20035;-33
2023/06/17 02:06:27;;;;;;;23.63;12.63;;;;;;;;;;5087483;28;20282;-33
2023/06/17 02:08:53;;;;;;;19.67;13.00;;;;;;;;;;5093103;28;20088;-34
2023/06/17 02:11:18;;;;;;;19.33;13.38;;;;;;;;;;5090835;28;20385;-31
2023/06/17 02:13:43;;;;;;;17.73;13.13;;;;;;;;;;5082028;28;20516;-33
2023/06/17 02:16:09;;;;;;;21.73;13.13;;;;;;;;;;5093428;28;20038;-33
2023/06/17 02:18:34;;;;;;;24.05;14.50;;;;;;;;;;5090056;28;20289;-32
2023/06/17 02:21:00;;;;;;;20.42;13.02;;;;;;;;;;5095418;28;20038;-33
2023/06/17 02:23:26;;;;;;;24.48;14.02;;;;;;;;;;5090734;28;20478;-33
2023/06/17 02:25:51;;;;;;;19.20;14.35;;;;;;;;;;5089818;28;20036;-35
2023/06/17 02:28:17;;;;;;;22.15;13.20;;;;;;;;;;5090751;28;20024;-33
2023/06/17 02:30:42;;;;;;;25.40;15.70;;;;;;;;;;5097250;28;20497;-34
2023/06/17 02:33:07;;;;;;;22.23;13.67;;;;;;;;;;5098809;28;20102;-33
2023/06/17 02:35:33;;;;;;;21.92;13.50;;;;;;;;;;5093666;28;20998;-32
2023/06/17 02:37:59;;;;;;;24.25;13.43;;;;;;;;;;5094409;28;20073;-34
2023/06/17 02:40:24;;;;;;;25.45;14.95;;;;;;;;;;5093081;28;20032;-34
2023/06/17 02:42:49;;;;;;;23.13;14.13;;;;;;;;;;5092170;28;20367;-33
2023/06/17 02:45:15;;;;;;;21.05;14.05;;;;;;;;;;5086033;28;20019;-33
2023/06/17 02:47:40;;;;;;;24.52;14.90;;;;;;;;;;5094140;28;20026;-34
2023/06/17 02:50:08;;;;;;;24.33;15.02;;;;;;;;;;5088701;28;20028;-32
2023/06/17 02:52:37;;;;;;;26.05;14.73;;;;;;;;;;5092094;28;20024;-33
2023/06/17 02:55:03;;;;;;;25.13;14.88;;;;;;;;;;5090230;28;20032;-33
2023/06/17 02:57:28;;;;;;;25.35;15.93;;;;;;;;;;5091672;28;20020;-34
2023/06/17 02:59:53;;;;;;;27.48;15.35;;;;;;;;;;5092558;28;20024;-33
2023/06/17 03:02:18;;;;;;;26.73;16.47;;;;;;;;;;5092054;28;20459;-34
2023/06/17 03:04:45;;;;;;;32.50;17.03;;;;;;;;;;5092221;28;20416;-33
2023/06/17 03:07:11;;;;;;;25.67;16.95;;;;;;;;;;5084345;28;20764;-33
2023/06/17 03:09:37;;;;;;;32.45;17.35;;;;;;;;;;5093904;28;20035;-34
2023/06/17 03:12:02;;;;;;;29.38;18.05;;;;;;;;;;5088383;28;20046;-33
2023/06/17 03:14:29;;;;;;;30.33;17.25;;;;;;;;;;5094343;28;20023;-33
2023/06/17 03:16:57;;;;;;;30.73;16.00;;;;;;;;;;5088577;28;20480;-33
2023/06/17 03:19:22;;;;;;;32.42;18.70;;;;;;;;;;5092974;28;20550;-33
2023/06/17 03:21:49;;;;;;;27.23;15.90;;;;;;;;;;5093963;28;20019;-33
2023/06/17 03:24:15;;;;;;;33.53;18.50;;;;;;;;;;5094892;28;20024;-33
2023/06/17 03:26:40;;;;;;;36.83;17.30;;;;;;;;;;5086085;28;20024;-33
2023/06/17 03:29:05;;;;;;;31.77;16.60;;;;;;;;;;5090658;28;20381;-33
2023/06/17 03:31:31;;;;;;;32.08;18.55;;;;;;;;;;5097242;28;20302;-34
2023/06/17 03:33:56;;;;;;;35.33;17.27;;;;;;;;;;5089962;28;20027;-34
2023/06/17 07:59:40;;;;;;;21.95;12.45;;;;;;;;;;5082522;27;1513093;-37
2023/06/17 08:02:08;;;;;;;20.13;13.38;;;;;;;;;;5081850;27;20069;-37
2023/06/17 08:04:33;;;;;;;20.10;13.82;;;;;;;;;;5114997;27;20070;-37
2023/06/17 08:07:01;;;;;;;25.38;15.88;;;;;;;;;;5115769;27;20019;-38
2023/06/17 08:09:27;;;;;;;20.65;14.48;;;;;;;;;;5085775;28;20465;-37
2023/06/17 08:11:55;;;;;;;20.15;13.70;;;;;;;;;;5092118;28;20030;-37
2023/06/17 08:14:20;;;;;;;17.75;12.60;;;;;;;;;;5095284;28;20027;-37
2023/06/17 08:16:45;;;;;;;22.05;14.65;;;;;;;;;;5095887;28;20530;-37
2023/06/17 08:19:12;;;;;;;20.58;13.50;;;;;;;;;;5102760;28;20485;-37
2023/06/17 08:21:38;;;;;;;15.80;10.10;;;;;;;;;;5094620;28;20042;-37
2023/06/17 08:24:25;;;;;;;15.35;9.75;;;;;;;;;;5098821;28;20032;-38
2023/06/17 08:26:51;;;;;;;15.10;10.27;;;;;;;;;;5097448;28;20040;-36
2023/06/17 08:29:17;;;;;;;17.30;11.38;;;;;;;;;;5079981;28;20032;-37
2023/06/17 08:31:45;;;;;;;18.58;11.52;;;;;;;;;;5091678;28;20035;-37
2023/06/17 08:34:11;;;;;;;16.08;11.13;;;;;;;;;;5093302;28;20031;-37
2023/06/17 08:36:40;;;;;;;14.63;10.75;;;;;;;;;;5102540;28;20044;-37
2023/06/17 08:39:10;;;;;;;15.93;11.80;;;;;;;;;;5091906;28;20016;-37
2023/06/17 08:41:43;;;;;;;13.75;10.20;;;;;;;;;;5096256;28;20030;-37
2023/06/17 08:44:11;;;;;;;14.70;10.15;;;;;;;;;;5094121;28;20039;-37
2023/06/17 08:46:37;;;;;;;21.33;13.35;;;;;;;;;;5096346;28;20045;-37
2023/06/17 08:49:03;;;;;;;15.07;10.80;;;;;;;;;;5093363;28;20028;-37
2023/06/17 08:51:28;;;;;;;18.15;10.05;;;;;;;;;;5091856;28;20996;-37
2023/06/17 08:53:54;;;;;;;17.08;11.02;;;;;;;;;;5093465;28;20035;-37
2023/06/17 08:56:20;;;;;;;17.80;11.27;;;;;;;;;;5109379;27;20020;-37
2023/06/17 08:58:45;;;;;;;17.75;11.43;;;;;;;;;;5099764;28;20024;-37
2023/06/17 09:01:12;;;;;;;14.00;10.70;;;;;;;;;;5092061;28;20159;-37
2023/06/17 09:03:39;;;;;;;17.45;10.77;;;;;;;;;;5101055;28;20057;-38
2023/06/17 09:06:25;;;;;;;17.42;11.25;;;;;;;;;;5091515;28;20021;-38
2023/06/17 09:08:57;;;;;;;19.35;12.48;;;;;;;;;;5087609;28;20050;-37
2023/06/17 09:11:22;;;;;;;;;;;;;;;;;;5091414;28;20107;-37
2023/06/17 09:13:54;;;;;;;17.77;11.07;;;;;;;;;;5079377;28;20002;-34
2023/06/17 09:16:19;;;;;;;;;;;;;;;;;;5087604;28;20056;-34
2023/06/17 09:18:48;;;;;;;18.37;11.10;;;;;;;;;;5080760;28;19951;-35
2023/06/17 09:21:16;;;;;;;17.58;12.40;;;;;;;;;;5086679;28;20032;-37
2023/06/17 09:23:53;;;;;;;16.75;11.18;;;;;;;;;;5088471;28;20394;-37
2023/06/17 09:26:19;;;;;;;17.48;11.18;;;;;;;;;;5080302;28;20103;-37
2023/06/17 09:28:45;;;;;;;13.82;9.90;;;;;;;;;;5074178;28;20126;-38
2023/06/17 09:31:13;;;;;;;16.83;11.85;;;;;;;;;;5065835;28;20405;-37
2023/06/17 09:33:43;;;;;;;19.90;12.38;;;;;;;;;;5081026;28;20081;-37
2023/06/17 09:36:08;;;;;;;16.90;11.82;;;;;;;;;;5076620;28;20023;-37
2023/06/17 09:38:36;;;;;;;18.80;12.27;;;;;;;;;;5084249;28;20028;-37
2023/06/17 09:41:02;;;;;;;19.60;12.23;;;;;;;;;;5081456;28;20020;-37
2023/06/17 09:43:28;;;;;;;13.20;7.40;;;;;;;;;;5080015;28;20054;-37
2023/06/17 09:45:55;;;;;;;20.52;13.48;;;;;;;;;;5080880;28;20027;-37
2023/06/17 09:48:24;;;;;;;19.88;10.95;;;;;;;;;;5079990;28;20047;-37
2023/06/17 09:50:55;;;;;;;17.05;11.75;;;;;;;;;;5080761;28;20402;-37
2023/06/17 09:53:25;;;;;;;19.17;13.32;;;;;;;;;;5076915;28;20035;-37
2023/06/17 09:55:55;;;;;;;20.02;12.88;;;;;;;;;;5067044;28;20028;-37
2023/06/17 09:58:22;;;;;;;16.75;11.05;;;;;;;;;;5086718;28;20265;-37
2023/06/17 10:00:51;;;;;;;16.77;10.80;;;;;;;;;;5075245;28;20026;-37
2023/06/17 10:03:17;;;;;;;13.85;10.40;;;;;;;;;;5078964;28;20073;-37
2023/06/17 10:05:42;;;;;;;19.27;11.55;;;;;;;;;;5079657;28;20353;-37
2023/06/17 10:08:08;;;;;;;17.33;11.25;;;;;;;;;;5061629;28;20020;-38
2023/06/17 10:10:34;;;;;;;13.00;10.13;;;;;;;;;;5065935;28;20492;-37
2023/06/17 10:13:04;;;;;;;14.25;10.80;;;;;;;;;;5079301;28;20024;-37
2023/06/17 10:15:35;;;;;;;16.17;11.20;;;;;;;;;;5077341;28;20085;-37
2023/06/17 10:18:03;;;;;;;15.03;10.80;;;;;;;;;;5078168;28;20099;-35
2023/06/17 10:20:32;;;;;;;15.70;9.38;;;;;;;;;;5074957;28;20016;-35
2023/06/17 10:22:58;;;;;;;15.10;9.57;;;;;;;;;;5052857;28;20040;-35
2023/06/17 10:25:25;;;;;;;14.82;10.13;;;;;;;;;;5065454;28;20604;-35
2023/06/17 10:27:55;;;;;;;13.02;9.25;;;;;;;;;;5079635;28;20371;-35
2023/06/17 10:30:28;;;;;;;13.40;9.33;;;;;;;;;;5073696;28;20050;-35
2023/06/17 10:32:57;;;;;;;11.63;8.85;;;;;;;;;;5079290;28;20028;-35
2023/06/17 10:35:25;;;;;;;13.63;9.55;;;;;;;;;;5076092;28;20560;-35
2023/06/17 10:37:53;;;;;;;14.98;10.35;;;;;;;;;;5066084;28;20086;-37
2023/06/17 10:40:26;;;;;;;15.90;9.65;;;;;;;;;;5077859;28;20095;-35
2023/06/17 10:43:06;;;;;;;13.73;9.82;;;;;;;;;;5058116;28;20739;-35
2023/06/17 10:45:32;;;;;;;15.13;9.25;;;;;;;;;;5086232;28;20153;-36
2023/06/17 10:48:17;;;;;;;13.98;10.07;;;;;;;;;;5072866;28;20391;-36
2023/06/17 10:50:46;;;;;;;21.13;11.93;;;;;;;;;;5070627;28;20040;-36
2023/06/17 10:53:15;;;;;;;16.15;11.00;;;;;;;;;;5079111;28;20032;-35
2023/06/17 10:55:41;;;;;;;17.38;11.63;;;;;;;;;;5083221;28;20127;-36
2023/06/17 10:58:07;;;;;;;18.65;9.35;;;;;;;;;;5060352;28;20033;-36
2023/06/17 11:00:32;;;;;;;30.30;16.45;;;;;;;;;;5074252;28;20597;-35
2023/06/17 11:03:01;;;;;;;21.63;12.75;;;;;;;;;;5074452;28;21915;-35
2023/06/17 11:05:26;;;;;;;19.42;10.88;;;;;;;;;;5082015;28;20051;-35
2023/06/17 11:07:52;;;;;;;19.75;10.75;;;;;;;;;;5053562;28;20114;-36
2023/06/17 11:10:23;;;;;;;14.35;10.57;;;;;;;;;;5071751;28;20149;-36
2023/06/17 11:12:52;;;;;;;12.18;9.88;;;;;;;;;;5067809;28;20062;-35
2023/06/17 11:15:20;;;;;;;13.23;8.48;;;;;;;;;;5079505;28;20070;-36
2023/06/17 11:17:45;;;;;;;13.52;7.75;;;;;;;;;;5079869;28;20093;-35
2023/06/17 11:20:14;;;;;;;10.85;9.02;;;;;;;;;;5067292;28;20889;-36
2023/06/17 11:22:39;;;;;;;11.27;10.00;;;;;;;;;;5074441;28;20489;-35
2023/06/17 11:25:09;;;;;;;14.27;10.27;;;;;;;;;;5057742;28;20039;-36
2023/06/17 11:27:34;;;;;;;22.05;11.43;;;;;;;;;;5083918;28;20111;-35
2023/06/17 11:30:02;;;;;;;12.15;9.57;;;;;;;;;;5057642;28;20039;-35
2023/06/17 11:32:30;;;;;;;15.25;10.20;;;;;;;;;;5063036;28;20055;-35
2023/06/17 11:34:56;;;;;;;16.02;11.10;;;;;;;;;;5058391;28;20036;-35
2023/06/17 11:37:24;;;;;;;13.55;10.15;;;;;;;;;;5056620;28;20385;-36
2023/06/17 11:39:49;;;;;;;15.18;10.93;;;;;;;;;;5056845;28;20089;-36
2023/06/17 11:42:15;;;;;;;14.20;10.60;;;;;;;;;;5077323;28;20047;-36
2023/06/17 11:44:40;;;;;;;13.82;10.65;;;;;;;;;;5074235;28;20100;-35
2023/06/17 11:47:07;;;;;;;15.23;11.40;;;;;;;;;;5059313;28;20030;-35
2023/06/17 11:49:35;;;;;;;15.35;9.75;;;;;;;;;;5064207;28;20556;-35
2023/06/17 11:52:08;;;;;;;13.77;8.68;;;;;;;;;;5075748;28;20016;-35
2023/06/17 11:54:37;;;;;;;11.65;8.73;;;;;;;;;;5081164;28;20455;-35
2023/06/17 11:57:04;;;;;;;11.80;8.48;;;;;;;;;;5076393;28;20331;-35
2023/06/17 11:59:30;;;;;;;9.38;7.72;;;;;;;;;;5077647;28;20066;-35
2023/06/17 12:02:00;;;;;;;9.80;7.88;;;;;;;;;;5071954;28;20115;-35
2023/06/17 12:04:28;;;;;;;10.77;7.88;;;;;;;;;;5075374;28;20474;-35
2023/06/17 12:06:53;;;;;;;11.27;8.05;;;;;;;;;;5078897;28;20024;-35
2023/06/17 12:09:19;;;;;;;10.25;7.88;;;;;;;;;;5055097;28;20036;-36
2023/06/17 12:11:47;;;;;;;9.73;7.28;;;;;;;;;;5072081;28;20031;-35
2023/06/17 12:14:13;;;;;;;9.68;7.82;;;;;;;;;;5076320;28;20032;-35
2023/06/17 12:16:40;;;;;;;8.90;6.63;;;;;;;;;;5076233;28;20019;-35
2023/06/17 12:19:12;;;;;;;12.57;6.93;;;;;;;;;;5074355;28;20020;-36
2023/06/17 12:21:38;;;;;;;8.30;5.57;;;;;;;;;;5091633;28;20078;-35
2023/06/17 12:24:06;;;;;;;7.10;5.35;;;;;;;;;;5077567;28;20016;-35
2023/06/17 12:26:34;;;;;;;8.43;5.18;;;;;;;;;;5080434;28;20122;-36
2023/06/17 12:29:02;;;;;;;8.00;4.78;;;;;;;;;;5089485;28;20027;-36
2023/06/17 12:31:30;;;;;;;7.88;5.10;;;;;;;;;;5062708;28;20055;-35
2023/06/17 12:33:55;;;;;;;6.82;4.72;;;;;;;;;;5064183;28;20434;-36
2023/06/17 12:36:20;;;;;;;11.88;5.13;;;;;;;;;;5058985;28;20047;-35
2023/06/17 12:38:49;;;;;;;8.10;4.97;;;;;;;;;;5079826;28;20417;-35
2023/06/17 12:41:17;;;;;;;7.80;4.15;;;;;;;;;;5080658;28;20021;-36
2023/06/17 12:43:45;;;;;;;8.52;4.82;;;;;;;;;;5082130;28;20020;-36
2023/06/17 12:46:14;;;;;;;12.65;6.32;;;;;;;;;;5072543;28;20438;-35
2023/06/17 12:48:41;;;;;;;9.50;6.13;;;;;;;;;;5088009;28;20021;-36
2023/06/17 12:51:08;;;;;;;10.27;6.35;;;;;;;;;;5077019;28;20043;-36
2023/06/17 12:53:34;;;;;;;9.85;5.85;;;;;;;;;;5059910;28;20085;-36
2023/06/17 12:56:04;;;;;;;11.13;6.05;;;;;;;;;;5056260;28;20419;-36
2023/06/17 12:58:32;;;;;;;8.00;5.55;;;;;;;;;;5063497;28;20532;-35
2023/06/17 13:00:58;;;;;;;8.63;6.03;;;;;;;;;;5078080;28;20078;-36
2023/06/17 13:03:23;;;;;;;8.02;5.60;;;;;;;;;;5082894;28;20044;-36
2023/06/17 13:05:52;;;;;;;9.27;6.50;;;;;;;;;;5064754;28;20436;-36
2023/06/17 13:08:20;;;;;;;8.35;6.50;;;;;;;;;;5082121;28;20076;-35
2023/06/17 13:10:45;;;;;;;10.43;6.38;;;;;;;;;;5077065;28;20693;-36
2023/06/17 13:13:14;;;;;;;10.88;6.47;;;;;;;;;;5061069;28;20032;-36
2023/06/17 13:15:40;;;;;;;6.28;4.15;;;;;;;;;;5081729;28;20024;-36
2023/06/17 13:18:06;;;;;;;10.90;7.43;;;;;;;;;;5069309;28;20470;-35
2023/06/17 13:20:36;;;;;;;11.65;7.95;;;;;;;;;;5092164;28;20108;-36
2023/06/17 13:23:02;;;;;;;13.55;9.07;;;;;;;;;;5082800;28;20016;-35
2023/06/17 13:25:30;;;;;;;14.63;8.07;;;;;;;;;;5083811;28;20016;-36
2023/06/17 13:27:57;;;;;;;16.33;8.95;;;;;;;;;;5080476;28;20031;-36
2023/06/17 13:30:23;;;;;;;13.35;8.65;;;;;;;;;;5080746;28;20033;-35
2023/06/17 13:32:52;;;;;;;13.50;9.38;;;;;;;;;;5082926;28;20039;-35
2023/06/17 13:35:17;;;;;;;15.05;9.90;;;;;;;;;;5067936;28;20120;-36
2023/06/17 13:37:42;;;;;;;17.77;9.55;;;;;;;;;;5081134;28;20191;-35
2023/06/17 13:40:08;;;;;;;12.48;9.07;;;;;;;;;;5064175;28;20036;-36
2023/06/17 13:42:33;;;;;;;13.35;9.30;;;;;;;;;;5081529;28;20027;-36
2023/06/17 13:44:59;;;;;;;11.88;8.57;;;;;;;;;;5079872;28;20020;-36
2023/06/17 13:47:27;;;;;;;11.45;8.93;;;;;;;;;;5080982;28;20024;-36
2023/06/17 13:49:53;;;;;;;13.38;9.20;;;;;;;;;;5081496;28;20032;-36
2023/06/17 13:52:21;;;;;;;12.55;9.02;;;;;;;;;;5073515;28;20366;-36
2023/06/17 13:54:46;;;;;;;14.40;9.25;;;;;;;;;;5073988;28;20031;-36
2023/06/17 13:57:17;;;;;;;13.20;8.38;;;;;;;;;;5064101;28;20032;-35
2023/06/17 13:59:48;;;;;;;12.17;8.60;;;;;;;;;;5097852;28;20100;-36
2023/06/17 14:02:16;;;;;;;11.63;8.70;;;;;;;;;;5081792;28;20307;-36
2023/06/17 14:04:46;;;;;;;11.98;8.45;;;;;;;;;;5081733;28;20069;-36
2023/06/17 14:07:14;;;;;;;10.95;8.30;;;;;;;;;;5079172;28;20077;-36
2023/06/17 14:09:42;;;;;;;10.93;7.57;;;;;;;;;;5079871;28;20028;-36
2023/06/17 14:12:08;;;;;;;9.68;7.30;;;;;;;;;;5060917;28;20039;-36
2023/06/17 14:14:35;;;;;;;10.38;7.88;;;;;;;;;;5080382;28;20032;-35
2023/06/17 14:17:01;;;;;;;6.05;4.30;;;;;;;;;;5081247;28;20028;-36
2023/06/17 14:19:28;;;;;;;11.75;7.32;;;;;;;;;;5062630;28;20670;-36
2023/06/17 14:21:58;;;;;;;9.63;6.80;;;;;;;;;;5065795;28;20039;-36
2023/06/17 14:24:23;;;;;;;10.82;7.88;;;;;;;;;;5061923;28;20128;-36
2023/06/17 14:27:07;;;;;;;10.23;6.97;;;;;;;;;;5077966;28;20016;-36
2023/06/17 14:29:35;;;;;;;8.40;5.47;;;;;;;;;;5078870;28;20036;-36
2023/06/17 14:32:00;;;;;;;9.25;6.03;;;;;;;;;;5062175;28;20028;-36
2023/06/17 14:34:28;;;;;;;9.50;6.53;;;;;;;;;;5061889;28;20042;-36
2023/06/17 14:36:54;;;;;;;6.72;5.38;;;;;;;;;;5072547;28;20024;-36
2023/06/17 14:39:22;;;;;;;7.25;4.93;;;;;;;;;;5062093;28;20035;-36
2023/06/17 14:41:49;;;;;;;7.65;5.72;;;;;;;;;;5077109;28;20900;-36
2023/06/17 14:44:15;;;;;;;7.07;5.13;;;;;;;;;;5077997;28;20023;-36
2023/06/17 14:46:40;;;;;;;7.28;5.28;;;;;;;;;;5091356;28;20020;-36
2023/06/17 14:49:09;;;;;;;9.20;6.35;;;;;;;;;;5081234;28;20240;-36
2023/06/17 14:51:37;;;;;;;9.68;6.60;;;;;;;;;;5058577;28;20036;-36
2023/06/17 14:54:07;;;;;;;5.55;4.00;;;;;;;;;;5074304;28;20451;-36
2023/06/17 14:56:32;;;;;;;7.70;5.55;;;;;;;;;;5078447;28;20042;-36
2023/06/17 14:58:59;;;;;;;7.25;5.63;;;;;;;;;;5063068;28;20382;-36
2023/06/17 15:01:24;;;;;;;9.05;6.10;;;;;;;;;;5076795;28;20027;-36
2023/06/17 15:03:53;;;;;;;9.75;6.65;;;;;;;;;;5077717;28;20031;-36
2023/06/17 15:06:21;;;;;;;8.43;6.65;;;;;;;;;;5078107;28;20024;-36
2023/06/17 15:08:46;;;;;;;8.43;6.22;;;;;;;;;;5078319;28;20107;-36
2023/06/17 15:11:12;;;;;;;7.68;6.57;;;;;;;;;;5079782;28;20115;-36
2023/06/17 15:13:37;;;;;;;9.52;5.95;;;;;;;;;;5063527;28;20151;-36
2023/06/17 15:16:09;;;;;;;11.27;6.22;;;;;;;;;;5061740;28;20066;-35
2023/06/17 15:18:36;;;;;;;8.13;6.13;;;;;;;;;;5073751;28;20059;-36
2023/06/17 15:21:02;;;;;;;7.63;6.55;;;;;;;;;;5074330;28;20026;-36
2023/06/17 15:23:28;;;;;;;7.40;5.95;;;;;;;;;;5074546;28;20020;-35
2023/06/17 15:25:53;;;;;;;10.07;6.95;;;;;;;;;;5078412;28;20020;-36
2023/06/17 15:28:19;;;;;;;7.63;6.43;;;;;;;;;;5076023;28;20060;-36
2023/06/17 15:30:47;;;;;;;8.93;6.40;;;;;;;;;;5078229;28;20023;-35
2023/06/17 15:33:14;;;;;;;7.10;5.68;;;;;;;;;;5061864;28;20036;-36
2023/06/17 15:35:43;;;;;;;7.93;6.28;;;;;;;;;;5076008;28;20048;-36
2023/06/17 15:38:10;;;;;;;9.18;7.28;;;;;;;;;;5061737;28;20048;-36
2023/06/17 15:40:41;;;;;;;8.25;6.68;;;;;;;;;;5063111;28;20546;-35
2023/06/17 15:43:06;;;;;;;9.02;5.60;;;;;;;;;;5084489;28;20362;-36
2023/06/17 15:45:31;;;;;;;9.45;5.93;;;;;;;;;;5086916;28;20474;-35
2023/06/17 15:47:57;;;;;;;8.32;5.60;;;;;;;;;;5085521;28;20047;-36
2023/06/17 15:50:22;;;;;;;7.07;5.32;;;;;;;;;;5083466;28;20072;-36
2023/06/17 15:52:48;;;;;;;7.97;5.40;;;;;;;;;;5056199;28;20115;-36
2023/06/17 15:55:13;;;;;;;6.25;4.68;;;;;;;;;;5068076;28;20482;-36
2023/06/17 15:57:44;;;;;;;4.90;3.13;;;;;;;;;;5075973;28;20081;-36
2023/06/17 16:00:10;;;;;;;9.43;5.65;;;;;;;;;;5079565;28;20032;-36
2023/06/17 16:02:40;;;;;;;7.50;4.82;;;;;;;;;;5065224;28;20429;-36
2023/06/17 16:05:08;;;;;;;6.03;4.95;;;;;;;;;;5069886;28;20022;-36
2023/06/17 16:07:36;;;;;;;11.43;8.10;;;;;;;;;;5081033;28;20047;-36
2023/06/17 16:10:04;;;;;;;7.85;5.43;;;;;;;;;;5074166;28;20009;-36
2023/06/17 16:12:32;;;;;;;8.15;4.63;;;;;;;;;;5080190;28;20478;-36
2023/06/17 16:15:03;;;;;;;9.32;5.97;;;;;;;;;;5070769;28;20059;-36
2023/06/17 16:17:31;;;;;;;6.90;5.43;;;;;;;;;;5084585;28;20020;-36
2023/06/17 16:19:59;;;;;;;7.95;6.18;;;;;;;;;;5063643;28;20043;-36
2023/06/17 16:22:27;;;;;;;6.95;6.22;;;;;;;;;;5078076;28;20168;-36
2023/06/17 16:24:52;;;;;;;9.00;6.13;;;;;;;;;;5085688;28;20135;-36
2023/06/17 16:27:18;;;;;;;9.48;6.22;;;;;;;;;;5077851;28;20114;-36
2023/06/17 16:29:43;;;;;;;7.05;5.32;;;;;;;;;;5069179;28;20548;-36
2023/06/17 16:32:10;;;;;;;6.30;4.25;;;;;;;;;;5085594;28;20370;-36
2023/06/17 16:34:36;;;;;;;6.25;3.70;;;;;;;;;;5074732;28;20043;-36
2023/06/17 16:37:06;;;;;;;6.55;4.10;;;;;;;;;;5077902;28;20546;-36
2023/06/17 16:39:31;;;;;;;4.47;2.63;;;;;;;;;;5097595;27;20042;-36
2023/06/17 16:42:00;;;;;;;10.55;5.45;;;;;;;;;;5070962;28;20028;-36
2023/06/17 16:44:28;;;;;;;18.40;11.98;;;;;;;;;;5084387;28;20050;-36
2023/06/17 16:46:56;;;;;;;6.82;5.00;;;;;;;;;;5068306;28;20039;-36
2023/06/17 16:49:29;;;;;;;6.78;4.78;;;;;;;;;;5087138;28;20123;-36
2023/06/17 16:51:54;;;;;;;5.97;4.47;;;;;;;;;;5084292;28;20568;-36
2023/06/17 16:54:22;;;;;;;6.78;5.22;;;;;;;;;;5086575;28;20032;-36
2023/06/17 16:56:50;;;;;;;6.28;5.47;;;;;;;;;;5081446;28;20016;-36
2023/06/17 16:59:18;;;;;;;9.25;5.88;;;;;;;;;;5074620;28;20035;-36
2023/06/17 17:01:45;;;;;;;10.40;6.30;;;;;;;;;;5086085;28;20024;-36
2023/06/17 17:04:12;;;;;;;10.02;6.65;;;;;;;;;;5082464;28;20575;-36
2023/06/17 17:06:38;;;;;;;8.77;5.30;;;;;;;;;;5082756;28;20051;-36
2023/06/17 17:09:06;;;;;;;7.93;5.28;;;;;;;;;;5078038;28;20137;-36
2023/06/17 17:11:31;;;;;;;7.20;5.38;;;;;;;;;;5092289;28;20047;-35
2023/06/17 17:13:58;;;;;;;8.50;5.80;;;;;;;;;;5074999;28;20442;-36
2023/06/17 17:16:23;;;;;;;11.30;6.93;;;;;;;;;;5078636;28;20028;-36
2023/06/17 17:18:51;;;;;;;14.38;9.52;;;;;;;;;;5081161;28;20034;-36
2023/06/17 17:21:21;;;;;;;13.52;9.02;;;;;;;;;;5086453;28;20019;-36
2023/06/17 17:23:49;;;;;;;11.95;7.32;;;;;;;;;;5081845;28;20012;-36
2023/06/17 17:26:17;;;;;;;8.43;5.85;;;;;;;;;;5082402;28;20028;-36
2023/06/17 17:28:47;;;;;;;14.43;6.50;;;;;;;;;;5072683;28;20047;-36
2023/06/17 17:31:13;;;;;;;7.57;6.20;;;;;;;;;;5074060;28;20028;-36
2023/06/17 17:33:43;;;;;;;9.63;7.78;;;;;;;;;;5077886;28;21363;-36
2023/06/17 17:36:10;;;;;;;9.05;6.00;;;;;;;;;;5080061;28;20447;-36
2023/06/17 17:38:36;;;;;;;8.70;5.82;;;;;;;;;;5081184;28;20048;-35
2023/06/17 17:41:01;;;;;;;10.57;5.47;;;;;;;;;;5073966;28;20924;-36
2023/06/17 17:43:27;;;;;;;7.10;4.97;;;;;;;;;;5072926;28;20482;-36
2023/06/17 17:45:53;;;;;;;11.77;5.18;;;;;;;;;;5080395;28;20048;-36
2023/06/17 17:48:20;;;;;;;7.28;5.50;;;;;;;;;;5065047;28;20024;-35
2023/06/17 17:50:46;;;;;;;14.18;6.28;;;;;;;;;;5082393;28;20032;-36
2023/06/17 17:53:11;;;;;;;7.60;5.63;;;;;;;;;;5074954;28;20062;-36
2023/06/17 17:55:37;;;;;;;10.10;6.60;;;;;;;;;;5083349;28;20036;-36
2023/06/17 17:58:05;;;;;;;10.57;6.20;;;;;;;;;;5063459;28;20058;-36
2023/06/17 18:00:33;;;;;;;7.47;6.00;;;;;;;;;;5083836;28;20119;-35
2023/06/17 18:03:03;;;;;;;8.32;6.18;;;;;;;;;;5075575;28;20939;-35
2023/06/17 18:05:30;;;;;;;9.98;6.97;;;;;;;;;;5080997;28;20043;-36
2023/06/17 18:07:55;;;;;;;9.50;6.68;;;;;;;;;;5075583;28;20105;-36
2023/06/17 18:10:23;;;;;;;11.27;7.50;;;;;;;;;;5085977;28;20458;-35
2023/06/17 18:12:51;;;;;;;9.75;7.30;;;;;;;;;;5083064;28;20059;-35
2023/06/17 18:15:16;;;;;;;13.13;8.13;;;;;;;;;;5079775;28;20028;-35
2023/06/17 18:17:42;;;;;;;12.73;8.00;;;;;;;;;;5079514;28;20032;-35
2023/06/17 18:20:10;;;;;;;13.98;8.02;;;;;;;;;;5066945;28;20058;-36
2023/06/17 18:22:38;;;;;;;12.30;8.60;;;;;;;;;;5078096;28;20031;-35
2023/06/17 18:25:04;;;;;;;10.52;7.43;;;;;;;;;;5065612;28;20036;-35
2023/06/17 18:27:30;;;;;;;11.80;7.75;;;;;;;;;;5047747;28;20036;-36
2023/06/17 18:29:55;;;;;;;13.48;7.65;;;;;;;;;;5068542;28;20046;-35
2023/06/17 18:32:21;;;;;;;9.80;6.90;;;;;;;;;;5064431;28;21696;-36
2023/06/17 18:34:48;;;;;;;13.75;7.55;;;;;;;;;;5082054;28;20582;-35
2023/06/17 18:37:16;;;;;;;12.45;8.98;;;;;;;;;;5073429;28;21932;-36
2023/06/17 18:39:43;;;;;;;13.77;9.38;;;;;;;;;;5071035;28;20024;-36
2023/06/17 18:42:09;;;;;;;17.08;9.63;;;;;;;;;;5074864;28;20024;-36
2023/06/17 18:44:39;;;;;;;14.10;9.23;;;;;;;;;;5065522;28;20172;-35
2023/06/17 18:47:04;;;;;;;11.95;8.52;;;;;;;;;;5076706;28;20124;-35
2023/06/17 18:49:30;;;;;;;16.00;9.10;;;;;;;;;;5065717;28;20127;-35
2023/06/17 18:51:58;;;;;;;13.27;8.40;;;;;;;;;;5074840;28;20031;-36